Terminal Aerodrome Forecast
Issued by NWS

Home | Current Version | Previous Version | Graphics & Text | Print | Product List | Glossary On
Versions: 1 2 3 4 5 6 7 8 9 10 11 12 13 14 15 16
951
FTUS43 KICT 090101 AAA
TAFRSL
TAF AMD
KRSL 090101Z 0901/0924 30013KT P6SM SCT150
     FM091100 31009KT P6SM SCT080 BKN150
     FM091600 33015G21KT P6SM BKN150=

USA.gov is the U.S. government's official web portal to all federal, state and local government web resources and services.